createdAt,value
2018-09-25T00:00:17.608Z,2.50
2018-09-25T00:02:26.471Z,2.30
2018-09-25T00:04:35.175Z,2.00
2018-09-25T00:06:43.907Z,2.00
2018-09-25T00:08:52.708Z,2.27
2018-09-25T00:11:01.457Z,1.83
2018-09-25T00:13:10.208Z,2.10
2018-09-25T00:15:18.967Z,2.10
2018-09-25T00:17:27.720Z,2.23
2018-09-25T00:19:36.464Z,1.90
2018-09-25T00:21:45.354Z,1.93
2018-09-25T00:23:54.357Z,2.33
2018-09-25T00:26:03.089Z,1.87
2018-09-25T00:28:12.057Z,2.50
2018-09-25T00:30:21.075Z,2.10
2018-09-25T00:32:29.856Z,2.23
2018-09-25T00:34:38.809Z,2.23
2018-09-25T00:36:47.524Z,2.13
2018-09-25T00:38:56.557Z,1.97
2018-09-25T00:41:05.396Z,2.10
2018-09-25T00:43:14.367Z,2.00
2018-09-25T00:45:23.348Z,2.13
2018-09-25T00:47:32.163Z,2.03
2018-09-25T00:49:40.990Z,1.63
2018-09-25T00:51:49.864Z,2.00
2018-09-25T00:53:58.876Z,2.67
2018-09-25T00:56:07.758Z,2.10
2018-09-25T00:58:16.549Z,2.33
2018-09-25T01:00:25.320Z,2.17
2018-09-25T01:02:34.085Z,2.27
2018-09-25T01:04:42.846Z,2.33
2018-09-25T01:06:51.794Z,2.03
2018-09-25T01:09:00.747Z,1.80
2018-09-25T01:11:09.622Z,1.93
2018-09-25T01:13:18.626Z,2.30
2018-09-25T01:15:27.686Z,2.10
2018-09-25T01:17:36.622Z,2.20
2018-09-25T01:19:45.552Z,2.23
2018-09-25T01:21:54.601Z,2.17
2018-09-25T01:24:03.559Z,2.07
2018-09-25T01:26:12.523Z,2.37
2018-09-25T01:28:21.202Z,1.83
2018-09-25T01:30:30.089Z,1.90
2018-09-25T01:32:39.092Z,2.10
2018-09-25T01:34:48.066Z,1.70
2018-09-25T01:36:57.059Z,1.60
2018-09-25T01:39:06.033Z,1.77
2018-09-25T01:41:14.833Z,2.07
2018-09-25T01:43:23.820Z,2.23
2018-09-25T01:45:32.578Z,2.13
2018-09-25T01:47:41.785Z,2.50
2018-09-25T01:49:50.623Z,2.27
2018-09-25T01:51:59.724Z,2.13
2018-09-25T01:54:08.642Z,2.00
2018-09-25T01:56:17.424Z,2.13
2018-09-25T01:58:26.575Z,2.20
2018-09-25T02:00:35.535Z,2.20
2018-09-25T02:02:44.370Z,2.20
2018-09-25T02:04:53.176Z,2.40
2018-09-25T02:07:01.996Z,2.43
2018-09-25T02:09:11.740Z,2.40
2018-09-25T02:11:21.245Z,1.90
2018-09-25T02:13:30.209Z,2.03
2018-09-25T02:15:39.100Z,2.70
2018-09-25T02:17:48.007Z,2.40
2018-09-25T02:19:57.064Z,2.63
2018-09-25T02:22:06.004Z,2.43
2018-09-25T02:24:14.833Z,2.23
2018-09-25T02:26:23.668Z,2.20
2018-09-25T02:28:32.502Z,2.17
2018-09-25T02:30:41.361Z,2.43
2018-09-25T02:32:50.060Z,2.60
2018-09-25T02:34:59.435Z,1.97
2018-09-25T02:37:08.138Z,2.23
2018-09-25T02:39:17.225Z,2.27
2018-09-25T02:41:26.213Z,2.40
2018-09-25T02:43:34.944Z,2.47
2018-09-25T02:45:43.768Z,2.30
2018-09-25T02:47:52.536Z,2.00
2018-09-25T02:50:01.273Z,2.37
2018-09-25T02:52:10.448Z,2.20
2018-09-25T02:54:19.384Z,2.60
2018-09-25T02:56:28.040Z,2.93
2018-09-25T02:58:36.911Z,2.67
2018-09-25T03:00:45.653Z,2.43
2018-09-25T03:02:54.427Z,2.40
2018-09-25T03:05:03.091Z,2.47
2018-09-25T03:07:11.868Z,2.43
2018-09-25T03:09:20.836Z,2.70
2018-09-25T03:11:29.819Z,2.57
2018-09-25T03:13:38.661Z,2.30
2018-09-25T03:15:47.700Z,2.30
2018-09-25T03:17:56.535Z,2.50
2018-09-25T03:20:05.499Z,2.70
2018-09-25T03:22:14.356Z,2.47
2018-09-25T03:24:23.398Z,3.03
2018-09-25T03:26:32.371Z,2.53
2018-09-25T03:28:41.303Z,2.63
2018-09-25T03:30:50.130Z,2.60
2018-09-25T03:32:58.824Z,2.50
2018-09-25T03:35:07.821Z,2.50
2018-09-25T03:37:16.656Z,2.50
2018-09-25T03:39:25.528Z,2.63
2018-09-25T03:41:34.514Z,2.80
2018-09-25T03:43:43.243Z,2.10
2018-09-25T03:45:52.194Z,2.30
2018-09-25T03:48:00.963Z,2.80
2018-09-25T03:50:09.901Z,2.90
2018-09-25T03:52:18.884Z,2.53
2018-09-25T03:54:27.653Z,3.00
2018-09-25T03:56:36.643Z,2.77
2018-09-25T03:58:45.444Z,3.40
2018-09-25T04:00:54.244Z,2.37
2018-09-25T04:03:03.071Z,2.60
2018-09-25T04:05:12.092Z,3.03
2018-09-25T04:07:21.089Z,2.70
2018-09-25T04:09:29.771Z,2.20
2018-09-25T04:11:38.732Z,2.97
2018-09-25T04:13:47.610Z,2.43
2018-09-25T04:15:56.589Z,2.70
2018-09-25T04:18:05.619Z,3.00
2018-09-25T04:20:14.448Z,3.47
2018-09-25T04:22:23.362Z,2.93
2018-09-25T04:24:32.329Z,2.53
2018-09-25T04:26:41.094Z,3.20
2018-09-25T04:28:49.827Z,2.73
2018-09-25T04:30:58.546Z,2.37
2018-09-25T04:33:07.511Z,2.70
2018-09-25T04:35:16.388Z,2.63
2018-09-25T04:37:25.409Z,2.93
2018-09-25T04:39:34.177Z,2.87
2018-09-25T04:41:42.997Z,2.63
2018-09-25T04:43:52.044Z,2.70
2018-09-25T04:46:01.010Z,2.70
2018-09-25T04:48:09.952Z,2.93
2018-09-25T04:50:18.767Z,2.73
2018-09-25T04:52:27.760Z,2.90
2018-09-25T04:54:36.548Z,3.00
2018-09-25T04:56:45.399Z,3.00
2018-09-25T04:58:54.147Z,2.90
2018-09-25T05:01:02.927Z,3.00
2018-09-25T05:03:11.983Z,3.40
2018-09-25T05:05:20.907Z,3.40
2018-09-25T05:07:29.789Z,3.10
2018-09-25T05:09:38.815Z,2.80
2018-09-25T05:11:47.535Z,2.87
2018-09-25T05:13:56.531Z,3.57
2018-09-25T05:16:05.751Z,3.40
2018-09-25T05:18:14.813Z,2.83
2018-09-25T05:20:23.739Z,3.37
2018-09-25T05:22:32.491Z,3.50
2018-09-25T05:24:41.415Z,3.17
2018-09-25T05:26:50.125Z,3.10
2018-09-25T05:28:58.976Z,3.17
2018-09-25T05:31:07.938Z,3.10
2018-09-25T05:33:16.762Z,3.50
2018-09-25T05:35:25.540Z,3.80
2018-09-25T05:37:34.389Z,2.77
2018-09-25T05:39:43.016Z,3.20
2018-09-25T05:41:51.771Z,2.90
2018-09-25T05:44:00.589Z,3.37
2018-09-25T05:46:09.501Z,3.63
2018-09-25T05:48:18.538Z,3.70
2018-09-25T05:50:27.138Z,3.40
2018-09-25T05:52:36.019Z,3.10
2018-09-25T05:54:44.788Z,3.53
2018-09-25T05:56:53.704Z,3.10
2018-09-25T05:59:02.477Z,3.97
2018-09-25T06:01:11.713Z,3.80
2018-09-25T06:03:20.567Z,4.00
2018-09-25T06:05:29.542Z,3.77
2018-09-25T06:07:38.327Z,4.07
2018-09-25T06:09:47.153Z,4.27
2018-09-25T06:11:55.897Z,4.10
2018-09-25T06:14:04.743Z,4.10
2018-09-25T06:16:13.627Z,4.50
2018-09-25T06:18:22.489Z,4.53
2018-09-25T06:20:31.273Z,4.57
2018-09-25T06:22:40.088Z,4.03
2018-09-25T06:24:49.074Z,4.47
2018-09-25T06:26:58.003Z,4.30
2018-09-25T06:29:06.905Z,4.13
2018-09-25T06:31:15.672Z,3.83
2018-09-25T06:33:24.652Z,3.97
2018-09-25T06:35:33.478Z,3.70
2018-09-25T06:37:42.247Z,4.93
2018-09-25T06:39:50.920Z,3.93
2018-09-25T06:41:59.824Z,4.07
2018-09-25T06:44:08.772Z,4.03
2018-09-25T06:46:17.795Z,4.40
2018-09-25T06:48:26.908Z,4.20
2018-09-25T06:50:35.734Z,3.93
2018-09-25T06:52:44.852Z,5.13
2018-09-25T06:54:53.513Z,3.97
2018-09-25T06:57:02.191Z,4.73
2018-09-25T06:59:11.352Z,4.43
2018-09-25T07:01:20.224Z,3.87
2018-09-25T07:03:28.999Z,4.23
2018-09-25T07:05:38.053Z,3.87
2018-09-25T07:07:46.881Z,4.07
2018-09-25T07:09:55.650Z,4.07
2018-09-25T07:12:04.229Z,4.27
2018-09-25T07:14:13.201Z,4.57
2018-09-25T07:16:21.969Z,4.00
2018-09-25T07:18:30.854Z,4.10
2018-09-25T07:20:39.731Z,4.57
2018-09-25T07:22:48.678Z,4.17
2018-09-25T07:24:57.575Z,3.87
2018-09-25T07:27:06.391Z,3.50
2018-09-25T07:29:15.281Z,3.97
2018-09-25T07:31:23.964Z,3.93
2018-09-25T07:33:32.891Z,3.70
2018-09-25T07:35:41.871Z,3.37
2018-09-25T07:37:50.819Z,3.67
2018-09-25T07:39:59.599Z,3.40
2018-09-25T07:42:08.577Z,3.23
2018-09-25T07:44:17.324Z,2.53
2018-09-25T07:46:26.064Z,2.80
2018-09-25T07:48:34.775Z,2.60
2018-09-25T07:50:43.604Z,2.47
2018-09-25T07:52:52.632Z,2.30
2018-09-25T07:55:01.596Z,2.30
2018-09-25T07:57:10.485Z,2.40
2018-09-25T07:59:19.418Z,2.00
2018-09-25T08:01:28.256Z,1.90
2018-09-25T08:03:37.078Z,1.60
2018-09-25T08:05:45.935Z,1.80
2018-09-25T08:07:54.691Z,1.80
2018-09-25T08:10:03.758Z,1.90
2018-09-25T08:12:13.008Z,1.60
2018-09-25T08:14:21.849Z,1.90
2018-09-25T08:16:30.779Z,2.03
2018-09-25T08:18:39.639Z,1.97
2018-09-25T08:20:48.378Z,1.87
2018-09-25T08:22:57.251Z,2.10
2018-09-25T08:25:06.095Z,2.40
2018-09-25T08:27:14.946Z,2.00
2018-09-25T08:29:23.802Z,2.20
2018-09-25T08:31:32.767Z,2.00
2018-09-25T08:33:41.671Z,1.93
2018-09-25T08:35:50.423Z,1.60
2018-09-25T08:37:59.387Z,2.10
2018-09-25T08:40:08.119Z,1.63
2018-09-25T08:42:16.859Z,2.50
2018-09-25T08:44:25.839Z,1.60
2018-09-25T08:46:34.948Z,2.50
2018-09-25T08:48:43.910Z,2.30
2018-09-25T08:50:52.947Z,1.93
2018-09-25T08:53:01.687Z,1.80
2018-09-25T08:55:10.587Z,2.03
2018-09-25T08:57:19.494Z,1.93
2018-09-25T08:59:28.183Z,1.50
2018-09-25T09:01:36.888Z,1.60
2018-09-25T09:03:45.872Z,2.00
2018-09-25T09:05:54.704Z,2.17
2018-09-25T09:08:03.560Z,1.93
2018-09-25T09:10:12.693Z,1.70
2018-09-25T09:12:21.425Z,1.73
2018-09-25T09:14:30.396Z,2.20
2018-09-25T09:16:39.357Z,1.80
2018-09-25T09:18:48.377Z,2.00
2018-09-25T09:20:57.340Z,1.67
2018-09-25T09:23:06.172Z,1.50
2018-09-25T09:25:15.067Z,1.57
2018-09-25T09:27:23.792Z,1.57
2018-09-25T09:29:32.712Z,1.53
2018-09-25T09:31:41.527Z,1.83
2018-09-25T09:33:50.508Z,1.77
2018-09-25T09:35:59.359Z,1.90
2018-09-25T09:38:08.193Z,1.53
2018-09-25T09:40:16.950Z,1.50
2018-09-25T09:42:25.829Z,1.17
2018-09-25T09:44:34.556Z,1.40
2018-09-25T09:46:43.439Z,1.60
2018-09-25T09:48:52.372Z,1.60
2018-09-25T09:51:01.243Z,1.70
2018-09-25T09:53:10.073Z,1.70
2018-09-25T09:55:18.820Z,1.87
2018-09-25T09:57:27.611Z,1.53
2018-09-25T09:59:36.518Z,2.80
2018-09-25T10:01:45.401Z,1.50
2018-09-25T10:03:54.191Z,1.40
2018-09-25T10:06:03.008Z,1.40
2018-09-25T10:08:11.883Z,1.53
2018-09-25T10:10:20.689Z,1.40
2018-09-25T10:12:29.753Z,1.63
2018-09-25T10:14:38.471Z,1.73
2018-09-25T10:16:47.279Z,1.87
2018-09-25T10:18:56.147Z,1.63
2018-09-25T10:21:04.810Z,1.50
2018-09-25T10:23:13.819Z,1.60
2018-09-25T10:25:22.929Z,1.50
2018-09-25T10:27:31.617Z,1.50
2018-09-25T10:29:40.480Z,1.93
2018-09-25T10:31:49.219Z,1.33
2018-09-25T10:33:58.076Z,1.33
2018-09-25T10:36:06.890Z,1.60
2018-09-25T10:38:15.521Z,1.53
2018-09-25T10:40:24.478Z,1.57
2018-09-25T10:42:33.386Z,1.30
2018-09-25T10:44:42.097Z,1.60
2018-09-25T10:46:50.903Z,1.90
2018-09-25T10:48:59.782Z,1.53
2018-09-25T10:51:08.637Z,1.40
2018-09-25T10:53:17.622Z,1.30
2018-09-25T10:55:26.514Z,1.63
2018-09-25T10:57:35.489Z,1.80
2018-09-25T10:59:44.412Z,1.57
2018-09-25T11:01:53.128Z,1.30
2018-09-25T11:04:01.891Z,1.50
2018-09-25T11:06:10.790Z,1.60
2018-09-25T11:08:19.604Z,1.63
2018-09-25T11:10:28.547Z,1.20
2018-09-25T11:12:37.363Z,1.67
2018-09-25T11:14:46.210Z,1.53
2018-09-25T11:16:55.189Z,1.80
2018-09-25T11:19:04.054Z,1.70
2018-09-25T11:21:12.800Z,1.47
2018-09-25T11:23:21.764Z,1.27
2018-09-25T11:25:30.723Z,1.60
2018-09-25T11:27:39.331Z,1.60
2018-09-25T11:29:48.288Z,1.40
2018-09-25T11:31:57.079Z,1.63
2018-09-25T11:34:05.868Z,1.40
2018-09-25T11:36:14.707Z,1.60
2018-09-25T11:38:23.391Z,1.07
2018-09-25T11:40:32.358Z,1.30
2018-09-25T11:42:41.132Z,1.33
2018-09-25T11:44:50.812Z,1.50
2018-09-25T11:46:59.904Z,1.70
2018-09-25T11:49:08.916Z,1.70
2018-09-25T11:51:17.915Z,1.70
2018-09-25T11:53:26.824Z,1.20
2018-09-25T11:55:35.645Z,1.37
2018-09-25T11:57:44.462Z,1.77
2018-09-25T11:59:53.347Z,1.40
2018-09-25T12:02:02.223Z,1.70
2018-09-25T12:04:11.152Z,1.57
2018-09-25T12:06:20.459Z,1.47
2018-09-25T12:08:29.217Z,1.93
2018-09-25T12:10:38.177Z,1.67
2018-09-25T12:12:46.935Z,1.30
2018-09-25T12:14:55.911Z,1.40
2018-09-25T12:17:04.667Z,0.87
2018-09-25T12:19:13.440Z,1.23
2018-09-25T12:21:22.364Z,1.57
2018-09-25T12:23:31.398Z,1.27
2018-09-25T12:25:40.379Z,1.30
2018-09-25T12:27:49.314Z,1.50
2018-09-25T12:29:58.179Z,1.40
2018-09-25T12:32:07.062Z,1.20
2018-09-25T12:34:15.729Z,1.00
2018-09-25T12:36:24.508Z,1.50
2018-09-25T12:38:33.349Z,1.37
2018-09-25T12:40:42.273Z,1.50
2018-09-25T12:42:51.060Z,1.27
2018-09-25T12:44:59.951Z,1.37
2018-09-25T12:47:08.676Z,1.30
2018-09-25T12:49:17.588Z,1.00
2018-09-25T12:51:26.393Z,1.03
2018-09-25T12:53:35.349Z,1.00
2018-09-25T12:55:44.295Z,1.10
2018-09-25T12:57:53.183Z,1.17
2018-09-25T13:00:02.248Z,1.10
2018-09-25T13:02:11.036Z,1.40
2018-09-25T13:04:19.792Z,1.30
2018-09-25T13:06:28.460Z,1.20
2018-09-25T13:08:37.235Z,1.07
2018-09-25T13:10:46.160Z,1.20
2018-09-25T13:12:54.992Z,1.10
2018-09-25T13:15:03.683Z,0.90
2018-09-25T13:17:12.654Z,1.43
2018-09-25T13:19:21.478Z,1.30
2018-09-25T13:21:30.343Z,1.17
2018-09-25T13:23:39.126Z,1.10
2018-09-25T13:25:47.983Z,1.07
2018-09-25T13:27:56.626Z,1.20
2018-09-25T13:30:05.434Z,1.00
2018-09-25T13:32:14.349Z,1.00
2018-09-25T13:34:23.305Z,1.37
2018-09-25T13:36:32.276Z,1.37
2018-09-25T13:38:41.102Z,1.33
2018-09-25T13:40:49.955Z,1.23
2018-09-25T13:42:58.871Z,1.17
2018-09-25T13:45:07.740Z,1.33
2018-09-25T13:47:16.600Z,1.20
2018-09-25T13:49:25.388Z,1.17
2018-09-25T13:51:34.395Z,1.00
2018-09-25T13:53:43.261Z,1.30
2018-09-25T13:55:52.233Z,1.40
2018-09-25T13:58:01.047Z,1.10
2018-09-25T14:00:09.862Z,1.23
2018-09-25T14:02:18.819Z,1.33
2018-09-25T14:04:27.726Z,1.30
2018-09-25T14:06:36.527Z,1.37
2018-09-25T14:08:45.513Z,1.30
2018-09-25T14:10:54.445Z,1.20
2018-09-25T14:13:03.434Z,1.50
2018-09-25T14:15:12.404Z,1.43
2018-09-25T14:17:21.504Z,1.43
2018-09-25T14:19:30.302Z,1.47
2018-09-25T14:21:39.167Z,1.50
2018-09-25T14:23:48.004Z,1.33
2018-09-25T14:25:56.828Z,1.43
2018-09-25T14:28:05.515Z,1.40
2018-09-25T14:30:14.787Z,1.10
2018-09-25T14:32:23.762Z,1.37
2018-09-25T14:34:32.669Z,1.50
2018-09-25T14:36:41.401Z,1.40
2018-09-25T14:38:50.221Z,1.30
2018-09-25T14:40:59.033Z,1.20
2018-09-25T14:43:07.760Z,1.40
2018-09-25T14:45:16.623Z,1.70
2018-09-25T14:47:25.635Z,1.43
2018-09-25T14:49:34.536Z,1.37
2018-09-25T14:51:43.399Z,1.80
2018-09-25T14:53:52.491Z,1.60
2018-09-25T14:56:01.319Z,1.67
2018-09-25T14:58:10.267Z,1.70
2018-09-25T15:00:19.181Z,1.47
2018-09-25T15:02:28.109Z,1.67
2018-09-25T15:04:37.040Z,1.60
2018-09-25T15:06:45.728Z,1.40
2018-09-25T15:08:54.363Z,1.87
2018-09-25T15:11:03.192Z,1.20
2018-09-25T15:13:18.632Z,1.40
2018-09-25T15:15:27.374Z,1.30
2018-09-25T15:17:36.270Z,1.70
2018-09-25T15:19:45.165Z,1.60
2018-09-25T15:21:54.474Z,1.57
2018-09-25T15:24:03.361Z,1.63
2018-09-25T15:26:12.198Z,1.70
2018-09-25T15:28:21.273Z,1.40
2018-09-25T15:30:30.160Z,1.57
2018-09-25T15:32:38.965Z,1.50
2018-09-25T15:34:47.772Z,1.80
2018-09-25T15:36:56.567Z,1.70
2018-09-25T15:39:05.420Z,1.40
2018-09-25T15:41:14.348Z,1.40
2018-09-25T15:43:23.353Z,1.50
2018-09-25T15:45:32.214Z,1.80
2018-09-25T15:47:41.139Z,1.47
2018-09-25T15:49:49.921Z,1.70
2018-09-25T15:51:58.856Z,1.80
2018-09-25T15:54:07.807Z,1.90
2018-09-25T15:56:16.680Z,1.70
2018-09-25T15:58:25.647Z,1.40
2018-09-25T16:00:34.577Z,1.90
2018-09-25T16:02:43.553Z,1.90
2018-09-25T16:04:58.907Z,1.70
2018-09-25T16:07:07.912Z,1.40
2018-09-25T16:09:16.720Z,1.77
2018-09-25T16:11:25.540Z,1.70
2018-09-25T16:13:34.423Z,1.20
2018-09-25T16:15:43.263Z,1.60
2018-09-25T16:17:52.209Z,1.53
2018-09-25T16:20:01.000Z,1.30
2018-09-25T16:22:09.861Z,1.60
2018-09-25T16:24:18.720Z,1.70
2018-09-25T16:26:27.631Z,1.63
2018-09-25T16:28:36.401Z,1.60
2018-09-25T16:30:45.443Z,1.83
2018-09-25T16:32:54.231Z,1.90
2018-09-25T16:35:03.104Z,1.70
2018-09-25T16:37:12.079Z,2.00
2018-09-25T16:39:20.972Z,1.30
2018-09-25T16:41:30.003Z,1.50
2018-09-25T16:43:39.076Z,1.50
2018-09-25T16:45:48.114Z,1.57
2018-09-25T16:47:56.963Z,1.70
2018-09-25T16:50:05.900Z,1.63
2018-09-25T16:52:14.937Z,1.50
2018-09-25T16:54:23.729Z,1.53
2018-09-25T16:56:32.676Z,1.73
2018-09-25T16:58:41.520Z,1.33
2018-09-25T17:00:50.303Z,1.40
2018-09-25T17:03:06.316Z,1.43
2018-09-25T17:05:15.002Z,1.73
2018-09-25T17:07:23.683Z,1.57
2018-09-25T17:09:32.639Z,1.93
2018-09-25T17:11:41.537Z,1.60
2018-09-25T17:13:50.497Z,1.20
2018-09-25T17:15:59.328Z,2.07
2018-09-25T17:18:08.163Z,1.80
2018-09-25T17:20:17.123Z,2.27
2018-09-25T17:22:26.050Z,1.80
2018-09-25T17:24:34.827Z,1.93
2018-09-25T17:26:43.591Z,1.50
2018-09-25T17:28:52.282Z,1.60
2018-09-25T17:31:01.251Z,1.57
2018-09-25T17:33:10.399Z,1.47
2018-09-25T17:35:19.355Z,1.73
2018-09-25T17:37:28.213Z,1.60
2018-09-25T17:39:37.308Z,1.50
2018-09-25T17:41:46.677Z,1.70
2018-09-25T17:43:55.555Z,1.33
2018-09-25T17:46:04.489Z,1.60
2018-09-25T17:48:13.447Z,1.30
2018-09-25T17:50:22.420Z,1.80
2018-09-25T17:52:31.359Z,1.70
2018-09-25T17:54:40.404Z,1.83
2018-09-25T17:56:49.464Z,1.93
2018-09-25T17:58:58.316Z,2.10
2018-09-25T18:01:07.244Z,1.70
2018-09-25T18:03:16.005Z,1.40
2018-09-25T18:05:24.956Z,1.80
2018-09-25T18:07:33.844Z,1.40
2018-09-25T18:09:42.616Z,1.73
2018-09-25T18:11:51.560Z,1.63
2018-09-25T18:14:00.429Z,1.80
2018-09-25T18:16:09.423Z,1.50
2018-09-25T18:18:18.280Z,1.63
2018-09-25T18:20:27.028Z,1.70
2018-09-25T18:22:36.009Z,1.40
2018-09-25T18:24:44.840Z,1.87
2018-09-25T18:26:53.821Z,1.60
2018-09-25T18:29:02.774Z,2.00
2018-09-25T18:31:11.782Z,2.47
2018-09-25T18:33:20.593Z,3.90
2018-09-25T18:35:29.375Z,3.67
2018-09-25T18:37:38.235Z,4.10
2018-09-25T18:39:47.062Z,3.60
2018-09-25T18:41:55.789Z,4.00
2018-09-25T18:44:04.678Z,3.53
2018-09-25T18:46:13.516Z,3.07
2018-09-25T18:48:22.440Z,3.07
2018-09-25T18:50:31.407Z,1.90
2018-09-25T18:52:40.167Z,2.10
2018-09-25T18:54:49.144Z,1.90
2018-09-25T18:56:58.255Z,2.30
2018-09-25T18:59:07.099Z,2.80
2018-09-25T19:01:15.935Z,2.20
2018-09-25T19:03:24.786Z,2.70
2018-09-25T19:05:33.607Z,4.00
2018-09-25T19:07:42.573Z,3.50
2018-09-25T19:09:51.418Z,3.90
2018-09-25T19:12:00.355Z,4.63
2018-09-25T19:14:09.304Z,4.40
2018-09-25T19:16:18.140Z,5.70
2018-09-25T19:18:26.896Z,6.63
2018-09-25T19:20:35.663Z,7.33
2018-09-25T19:22:44.484Z,6.53
2018-09-25T19:24:53.328Z,4.13
2018-09-25T19:27:02.257Z,3.20
2018-09-25T19:29:11.019Z,3.47
2018-09-25T19:31:21.180Z,2.57
2018-09-25T19:33:30.187Z,2.53
2018-09-25T19:35:39.124Z,2.33
2018-09-25T19:37:47.975Z,2.03
2018-09-25T19:39:56.876Z,2.40
2018-09-25T19:42:05.854Z,2.10
2018-09-25T19:44:14.690Z,1.87
2018-09-25T19:46:23.581Z,1.90
2018-09-25T19:48:32.563Z,1.97
2018-09-25T19:50:41.339Z,2.43
2018-09-25T19:52:50.322Z,2.33
2018-09-25T19:54:59.190Z,2.43
2018-09-25T19:57:08.344Z,2.47
2018-09-25T19:59:17.030Z,2.67
2018-09-25T20:01:26.135Z,2.50
2018-09-25T20:03:35.345Z,2.43
2018-09-25T20:05:44.053Z,2.27
2018-09-25T20:07:52.911Z,2.43
2018-09-25T20:10:01.767Z,2.83
2018-09-25T20:12:10.974Z,3.13
2018-09-25T20:14:19.915Z,3.37
2018-09-25T20:16:28.925Z,2.77
2018-09-25T20:18:37.873Z,2.97
2018-09-25T20:20:46.843Z,3.03
2018-09-25T20:22:55.705Z,2.90
2018-09-25T20:25:04.610Z,2.67
2018-09-25T20:27:13.490Z,2.70
2018-09-25T20:29:22.402Z,2.67
2018-09-25T20:31:31.283Z,3.20
2018-09-25T20:33:40.143Z,3.17
2018-09-25T20:35:49.130Z,2.83
2018-09-25T20:37:58.187Z,2.70
2018-09-25T20:40:07.016Z,2.60
2018-09-25T20:42:15.995Z,3.00
2018-09-25T20:44:24.861Z,2.97
2018-09-25T20:46:33.974Z,3.03
2018-09-25T20:48:42.668Z,2.60
2018-09-25T20:50:51.756Z,2.43
2018-09-25T20:53:00.560Z,2.60
2018-09-25T20:55:09.700Z,2.53
2018-09-25T20:57:18.559Z,2.93
2018-09-25T20:59:27.289Z,4.97
2018-09-25T21:01:36.387Z,5.23
2018-09-25T21:03:45.317Z,3.93
2018-09-25T21:05:54.363Z,3.40
2018-09-25T21:08:03.379Z,3.40
2018-09-25T21:10:12.365Z,3.00
2018-09-25T21:12:21.277Z,4.03
2018-09-25T21:14:30.140Z,10.27
2018-09-25T21:16:39.087Z,14.07
2018-09-25T21:18:47.816Z,6.27
2018-09-25T21:20:57.001Z,15.50
2018-09-25T21:23:05.807Z,5.97
2018-09-25T21:25:14.736Z,3.90
2018-09-25T21:27:30.031Z,3.30
2018-09-25T21:29:38.935Z,6.07
2018-09-25T21:31:47.868Z,3.10
2018-09-25T21:36:14.748Z,2.93
2018-09-25T21:38:23.824Z,3.10
2018-09-25T21:40:32.557Z,2.67
2018-09-25T21:42:41.408Z,3.00
2018-09-25T21:44:50.430Z,3.00
2018-09-25T21:46:59.124Z,3.13
2018-09-25T21:49:08.187Z,2.70
2018-09-25T21:51:17.185Z,2.73
2018-09-25T21:53:25.896Z,3.10
2018-09-25T21:55:34.645Z,3.00
2018-09-25T21:57:43.655Z,2.77
2018-09-25T21:59:52.638Z,2.50
2018-09-25T22:02:01.678Z,2.63
2018-09-25T22:04:10.636Z,2.53
2018-09-25T22:06:19.746Z,2.40
2018-09-25T22:08:28.596Z,2.80
2018-09-25T22:10:37.516Z,2.80
2018-09-25T22:12:46.416Z,3.20
2018-09-25T22:14:55.332Z,2.87
2018-09-25T22:17:04.308Z,2.90
2018-09-25T22:19:13.208Z,3.07
2018-09-25T22:21:21.974Z,2.77
2018-09-25T22:23:30.947Z,2.80
2018-09-25T22:25:39.856Z,2.33
2018-09-25T22:27:48.743Z,2.50
2018-09-25T22:29:57.812Z,2.50
2018-09-25T22:32:06.503Z,2.63
2018-09-25T22:34:15.367Z,2.37
2018-09-25T22:36:24.370Z,2.50
2018-09-25T22:38:33.147Z,2.00
2018-09-25T22:40:42.027Z,2.30
2018-09-25T22:42:50.673Z,2.60
2018-09-25T22:44:59.576Z,2.20
2018-09-25T22:47:08.424Z,2.70
2018-09-25T22:49:17.164Z,2.50
2018-09-25T22:51:25.972Z,1.80
2018-09-25T22:53:34.684Z,2.10
2018-09-25T22:55:43.431Z,2.67
2018-09-25T22:57:52.140Z,2.37
2018-09-25T23:00:01.177Z,2.53
2018-09-25T23:02:10.363Z,2.30
2018-09-25T23:04:19.222Z,2.20
2018-09-25T23:06:28.078Z,2.37
2018-09-25T23:08:36.859Z,2.20
2018-09-25T23:10:45.683Z,2.37
2018-09-25T23:12:54.473Z,2.50
2018-09-25T23:15:03.324Z,2.43
2018-09-25T23:17:12.027Z,2.33
2018-09-25T23:19:20.805Z,2.83
2018-09-25T23:21:29.642Z,2.47
2018-09-25T23:23:38.700Z,2.30
2018-09-25T23:25:47.500Z,2.00
2018-09-25T23:27:56.484Z,2.50
2018-09-25T23:30:05.292Z,2.80
2018-09-25T23:32:14.401Z,2.80
2018-09-25T23:34:23.191Z,2.73
2018-09-25T23:36:32.078Z,2.27
2018-09-25T23:38:41.036Z,2.47
2018-09-25T23:40:54.817Z,2.53
2018-09-25T23:43:17.729Z,3.00
2018-09-25T23:45:29.431Z,2.43
2018-09-25T23:48:39.841Z,2.33
2018-09-25T23:52:53.950Z,2.80
2018-09-25T23:55:03.018Z,2.27
2018-09-25T23:57:11.024Z,2.80
2018-09-25T23:59:21.293Z,2.33
